createdAt,value
2023-04-26T00:00:17.063Z,50.20
2023-04-26T00:03:11.787Z,50.10
2023-04-26T00:06:06.812Z,49.60
2023-04-26T00:09:01.064Z,49.30
2023-04-26T00:11:55.291Z,49.20
2023-04-26T00:14:49.915Z,49.20
2023-04-26T00:17:44.312Z,49.60
2023-04-26T00:20:38.691Z,49.00
2023-04-26T00:23:33.414Z,49.30
2023-04-26T00:26:27.543Z,48.90
2023-04-26T00:29:21.763Z,49.10
2023-04-26T00:32:15.910Z,49.20
2023-04-26T00:35:10.579Z,48.70
2023-04-26T00:38:04.722Z,48.50
2023-04-26T00:40:59.039Z,48.80
2023-04-26T00:43:53.258Z,48.70
2023-04-26T00:46:47.585Z,47.90
2023-04-26T00:49:41.996Z,48.40
2023-04-26T00:52:36.548Z,48.30
2023-04-26T00:55:30.787Z,48.00
2023-04-26T00:58:25.040Z,47.60
2023-04-26T01:01:19.309Z,48.10
2023-04-26T01:04:16.178Z,47.70
2023-04-26T01:07:11.281Z,47.90
2023-04-26T01:10:11.411Z,48.00
2023-04-26T01:13:06.640Z,48.10
2023-04-26T01:16:01.793Z,48.00
2023-04-26T01:18:56.613Z,47.80
2023-04-26T01:21:50.871Z,48.10
2023-04-26T01:24:50.412Z,48.40
2023-04-26T01:27:44.868Z,48.30
2023-04-26T01:30:39.036Z,48.00
2023-04-26T01:33:33.314Z,48.10
2023-04-26T01:36:28.196Z,48.20
2023-04-26T01:39:22.672Z,48.30
2023-04-26T01:42:16.795Z,47.80
2023-04-26T01:45:11.310Z,47.90
2023-04-26T01:48:05.563Z,48.00
2023-04-26T01:50:59.849Z,48.00
2023-04-26T01:53:54.219Z,48.00
2023-04-26T01:56:48.463Z,47.40
2023-04-26T01:59:43.125Z,47.40
2023-04-26T02:02:37.680Z,47.10
2023-04-26T02:05:32.094Z,47.70
2023-04-26T02:08:26.212Z,47.20
2023-04-26T02:11:20.337Z,47.80
2023-04-26T02:14:14.543Z,47.30
2023-04-26T02:17:10.125Z,47.10
2023-04-26T02:20:05.104Z,47.20
2023-04-26T02:22:59.275Z,47.00
2023-04-26T02:25:53.611Z,46.80
2023-04-26T02:28:47.780Z,46.80
2023-04-26T02:31:42.141Z,46.80
2023-04-26T02:34:37.761Z,46.60
2023-04-26T02:37:32.052Z,46.10
2023-04-26T02:40:26.229Z,46.00
2023-04-26T02:43:20.525Z,46.40
2023-04-26T02:46:17.229Z,45.40
2023-04-26T02:49:11.717Z,45.50
2023-04-26T02:52:06.272Z,45.50
2023-04-26T02:55:00.452Z,45.50
2023-04-26T02:57:55.499Z,45.30
2023-04-26T03:00:49.707Z,45.40
2023-04-26T03:03:44.595Z,45.70
2023-04-26T03:06:38.828Z,45.30
2023-04-26T03:09:33.109Z,45.50
2023-04-26T03:12:27.355Z,45.70
2023-04-26T03:15:21.456Z,45.50
2023-04-26T03:18:15.626Z,45.60
2023-04-26T03:21:09.850Z,44.70
2023-04-26T03:24:04.185Z,45.10
2023-04-26T03:26:59.162Z,45.40
2023-04-26T03:29:53.690Z,45.40
2023-04-26T03:32:47.895Z,45.20
2023-04-26T03:35:42.219Z,45.50
2023-04-26T03:38:36.277Z,45.10
2023-04-26T03:41:30.415Z,44.90
2023-04-26T03:44:24.562Z,43.50
2023-04-26T03:47:18.742Z,43.80
2023-04-26T03:50:13.211Z,43.00
2023-04-26T03:53:07.329Z,42.90
2023-04-26T03:56:01.555Z,43.30
2023-04-26T03:58:55.712Z,42.90
2023-04-26T04:01:49.839Z,43.60
2023-04-26T04:04:44.188Z,42.50
2023-04-26T04:07:38.679Z,42.50
2023-04-26T04:10:32.916Z,42.30
2023-04-26T04:13:27.074Z,41.90
2023-04-26T04:16:21.333Z,42.00
2023-04-26T04:19:15.653Z,41.60
2023-04-26T04:22:09.812Z,42.00
2023-04-26T04:25:05.884Z,42.10
2023-04-26T04:28:00.072Z,42.30
2023-04-26T04:30:54.770Z,42.70
2023-04-26T04:33:50.154Z,42.40
2023-04-26T04:36:44.608Z,41.80
2023-04-26T04:39:38.972Z,42.20
2023-04-26T04:42:33.535Z,41.40
2023-04-26T04:45:28.322Z,41.50
2023-04-26T04:48:23.053Z,41.80
2023-04-26T04:51:17.420Z,41.30
2023-04-26T04:54:21.315Z,41.50
2023-04-26T04:57:15.564Z,41.50
2023-04-26T05:00:16.969Z,41.20
2023-04-26T05:03:11.730Z,41.60
2023-04-26T05:06:06.992Z,41.10
2023-04-26T05:09:02.668Z,40.90
2023-04-26T05:11:56.830Z,40.80
2023-04-26T05:14:51.086Z,40.30
2023-04-26T05:17:45.193Z,40.70
2023-04-26T05:20:39.514Z,40.50
2023-04-26T05:23:35.491Z,40.40
2023-04-26T05:26:29.604Z,40.40
2023-04-26T05:29:23.861Z,39.90
2023-04-26T05:32:18.083Z,39.90
2023-04-26T05:35:12.216Z,40.00
2023-04-26T05:38:06.436Z,39.80
2023-04-26T05:41:00.562Z,39.80
2023-04-26T05:43:54.983Z,40.10
2023-04-26T05:46:49.359Z,40.20
2023-04-26T05:49:43.555Z,40.30
2023-04-26T05:52:37.797Z,39.70
2023-04-26T05:55:31.985Z,39.90
2023-04-26T05:58:26.091Z,40.10
2023-04-26T06:01:20.537Z,40.30
2023-04-26T06:04:14.890Z,40.40
2023-04-26T06:07:09.461Z,40.00
2023-04-26T06:10:03.867Z,40.30
2023-04-26T06:12:58.003Z,40.20
2023-04-26T06:15:52.206Z,40.10
2023-04-26T06:18:46.548Z,40.20
2023-04-26T06:21:40.711Z,39.90
2023-04-26T06:24:35.124Z,40.30
2023-04-26T06:27:29.294Z,40.60
2023-04-26T06:30:23.558Z,40.40
2023-04-26T06:33:17.704Z,40.40
2023-04-26T06:36:15.092Z,40.20
2023-04-26T06:39:09.268Z,40.20
2023-04-26T06:42:03.472Z,40.50
2023-04-26T06:44:57.809Z,40.70
2023-04-26T06:47:54.955Z,40.70
2023-04-26T06:50:49.273Z,40.80
2023-04-26T06:53:43.496Z,41.10
2023-04-26T06:56:37.658Z,40.80
2023-04-26T06:59:32.037Z,40.80
2023-04-26T07:02:26.436Z,41.20
2023-04-26T07:05:20.858Z,41.20
2023-04-26T07:08:15.068Z,40.90
2023-04-26T07:11:12.757Z,41.10
2023-04-26T07:14:07.515Z,41.20
2023-04-26T07:17:01.825Z,41.20
2023-04-26T07:19:56.332Z,41.20
2023-04-26T07:22:50.791Z,41.30
2023-04-26T07:25:45.036Z,41.40
2023-04-26T07:28:39.236Z,41.30
2023-04-26T07:31:34.143Z,41.50
2023-04-26T07:34:28.330Z,41.40
2023-04-26T07:37:22.593Z,41.60
2023-04-26T07:40:17.061Z,41.70
2023-04-26T07:43:11.188Z,41.50
2023-04-26T07:46:05.685Z,41.40
2023-04-26T07:48:59.957Z,41.50
2023-04-26T07:51:54.255Z,41.70
2023-04-26T07:54:48.976Z,41.90
2023-04-26T07:57:43.148Z,42.00
2023-04-26T08:00:39.971Z,41.90
2023-04-26T08:03:35.172Z,41.90
2023-04-26T08:06:30.558Z,41.80
2023-04-26T08:09:24.722Z,41.50
2023-04-26T08:12:18.848Z,41.00
2023-04-26T08:15:13.708Z,40.90
2023-04-26T08:18:08.164Z,40.80
2023-04-26T08:21:02.612Z,40.30
2023-04-26T08:23:56.934Z,40.60
2023-04-26T08:26:51.124Z,40.80
2023-04-26T08:29:45.359Z,40.80
2023-04-26T08:32:39.617Z,40.70
2023-04-26T08:35:33.889Z,40.90
2023-04-26T08:38:28.105Z,41.20
2023-04-26T08:41:27.962Z,41.10
2023-04-26T08:44:27.858Z,41.20
2023-04-26T08:47:46.230Z,41.20
2023-04-26T08:50:42.554Z,41.10
2023-04-26T08:53:37.807Z,41.20
2023-04-26T08:56:33.099Z,41.20
2023-04-26T08:59:28.116Z,41.10
2023-04-26T09:02:25.854Z,41.20
2023-04-26T09:05:30.907Z,41.40
2023-04-26T09:08:25.896Z,41.50
2023-04-26T09:11:20.406Z,41.70
2023-04-26T09:14:15.016Z,41.60
2023-04-26T09:17:27.851Z,41.60
2023-04-26T09:20:31.031Z,41.70
2023-04-26T09:23:25.581Z,41.90
2023-04-26T09:26:23.855Z,42.00
2023-04-26T09:29:20.334Z,42.10
2023-04-26T09:32:14.900Z,42.10
2023-04-26T09:35:10.606Z,42.30
2023-04-26T09:38:10.998Z,42.30
2023-04-26T09:41:07.649Z,42.40
2023-04-26T09:44:02.378Z,42.40
2023-04-26T09:47:05.105Z,42.40
2023-04-26T09:49:59.692Z,42.60
2023-04-26T09:52:54.168Z,42.40
2023-04-26T09:55:51.058Z,42.50
2023-04-26T09:59:03.980Z,42.60
2023-04-26T10:01:58.709Z,42.60
2023-04-26T10:04:55.836Z,42.60
2023-04-26T10:07:52.985Z,42.30
2023-04-26T10:10:48.893Z,42.60
2023-04-26T10:13:46.233Z,42.70
2023-04-26T10:16:41.173Z,42.70
2023-04-26T10:19:40.135Z,42.80
2023-04-26T10:22:39.025Z,42.80
2023-04-26T10:25:42.036Z,42.70
2023-04-26T10:28:42.705Z,43.00
2023-04-26T10:32:01.385Z,43.10
2023-04-26T10:35:15.259Z,43.10
2023-04-26T10:38:11.551Z,43.40
2023-04-26T10:41:35.290Z,43.40
2023-04-26T10:44:46.888Z,43.50
2023-04-26T10:47:41.777Z,43.60
2023-04-26T10:50:36.103Z,43.80
2023-04-26T10:53:34.585Z,43.80
2023-04-26T10:56:29.188Z,43.80
2023-04-26T10:59:39.700Z,43.90
2023-04-26T11:03:05.053Z,43.90
2023-04-26T11:06:00.062Z,43.90
2023-04-26T11:08:55.815Z,44.20
2023-04-26T11:11:56.944Z,44.50
2023-04-26T11:14:51.227Z,44.60
2023-04-26T11:17:45.587Z,44.70
2023-04-26T11:20:40.008Z,44.70
2023-04-26T11:23:34.531Z,44.60
2023-04-26T11:26:35.777Z,44.80
2023-04-26T11:29:30.648Z,44.80
2023-04-26T11:32:24.984Z,44.90
2023-04-26T11:35:19.325Z,44.90
2023-04-26T11:38:13.669Z,44.90
2023-04-26T11:41:08.049Z,45.10
2023-04-26T11:44:02.419Z,45.10
2023-04-26T11:46:57.511Z,44.90
2023-04-26T11:49:52.317Z,44.80
2023-04-26T11:52:46.898Z,44.80
2023-04-26T11:55:42.373Z,44.80
2023-04-26T11:58:36.701Z,44.70
2023-04-26T12:01:32.371Z,44.70
2023-04-26T12:04:31.449Z,44.60
2023-04-26T12:07:26.231Z,44.70
2023-04-26T12:10:23.040Z,44.80
2023-04-26T12:13:17.592Z,44.80
2023-04-26T12:16:25.572Z,44.90
2023-04-26T12:19:25.924Z,44.90
2023-04-26T12:22:25.949Z,45.00
2023-04-26T12:25:21.562Z,44.90
2023-04-26T12:28:15.779Z,45.00
2023-04-26T12:31:10.548Z,45.00
2023-04-26T12:34:04.892Z,45.10
2023-04-26T12:36:59.159Z,45.10
2023-04-26T12:39:53.470Z,45.20
2023-04-26T12:42:50.448Z,49.60
2023-04-26T12:45:44.817Z,50.50
2023-04-26T12:48:39.400Z,53.10
2023-04-26T12:51:35.030Z,55.30
2023-04-26T12:54:29.375Z,57.40
2023-04-26T12:57:24.324Z,58.40
2023-04-26T13:00:19.627Z,59.70
2023-04-26T13:03:15.662Z,60.60
2023-04-26T13:06:10.267Z,61.80
2023-04-26T13:09:04.962Z,61.10
2023-04-26T13:11:59.296Z,62.80
2023-04-26T13:14:53.531Z,63.60
2023-04-26T13:17:48.364Z,64.30
2023-04-26T13:20:42.741Z,64.40
2023-04-26T13:23:35.642Z,65.20
2023-04-26T13:26:09.930Z,66.80
2023-04-26T13:28:44.275Z,68.20
2023-04-26T13:31:19.385Z,68.30
2023-04-26T13:33:53.732Z,68.50
2023-04-26T13:36:29.188Z,68.50
2023-04-26T13:39:06.204Z,69.40
2023-04-26T13:41:40.443Z,71.40
2023-04-26T13:44:15.536Z,73.00
2023-04-26T13:46:49.861Z,75.00
2023-04-26T13:49:24.598Z,76.80
2023-04-26T13:51:59.250Z,79.00
2023-04-26T13:54:33.517Z,79.80
2023-04-26T13:57:08.123Z,81.70
2023-04-26T13:59:42.834Z,83.20
2023-04-26T14:02:17.373Z,84.50
2023-04-26T14:04:52.173Z,86.40
2023-04-26T14:07:26.620Z,87.00
2023-04-26T14:10:00.866Z,87.40
2023-04-26T14:12:35.428Z,87.60
2023-04-26T14:15:10.177Z,87.10
2023-04-26T14:17:44.598Z,87.30
2023-04-26T14:20:18.971Z,86.60
2023-04-26T14:22:53.252Z,87.70
2023-04-26T14:25:28.395Z,87.50
2023-04-26T14:28:03.557Z,88.70
2023-04-26T14:30:37.893Z,89.40
2023-04-26T14:33:12.174Z,90.00
2023-04-26T14:35:47.607Z,90.40
2023-04-26T14:38:22.584Z,91.10
2023-04-26T14:40:56.811Z,91.80
2023-04-26T14:43:31.311Z,92.50
2023-04-26T14:46:05.968Z,92.90
2023-04-26T14:48:40.148Z,93.60
2023-04-26T14:51:14.514Z,94.50
2023-04-26T14:53:48.664Z,95.00
2023-04-26T14:56:23.252Z,95.30
2023-04-26T14:58:57.408Z,95.90
2023-04-26T15:01:32.480Z,96.10
2023-04-26T15:04:06.982Z,96.20
2023-04-26T15:06:41.367Z,96.30
2023-04-26T15:09:16.056Z,96.40
2023-04-26T15:11:50.200Z,96.50
2023-04-26T15:14:24.735Z,96.60
2023-04-26T15:16:59.348Z,96.70
2023-04-26T15:19:33.743Z,96.70
2023-04-26T15:22:07.935Z,96.80
2023-04-26T15:24:42.308Z,96.70
2023-04-26T15:27:16.478Z,96.90
2023-04-26T15:29:50.609Z,96.50
2023-04-26T15:32:24.799Z,96.50
2023-04-26T15:34:59.215Z,96.60
2023-04-26T15:37:33.597Z,96.70
2023-04-26T15:40:11.596Z,97.00
2023-04-26T15:42:45.950Z,96.80
2023-04-26T15:45:21.252Z,96.70
2023-04-26T15:47:56.437Z,96.70
2023-04-26T15:50:30.613Z,96.60
2023-04-26T15:53:04.721Z,96.60
2023-04-26T15:55:38.804Z,96.70
2023-04-26T15:58:13.153Z,96.90
2023-04-26T16:00:47.339Z,97.10
2023-04-26T16:03:22.034Z,97.20
2023-04-26T16:05:56.425Z,97.20
2023-04-26T16:08:39.830Z,97.60
2023-04-26T16:11:14.652Z,97.80
2023-04-26T16:13:52.969Z,98.00
2023-04-26T16:16:28.862Z,98.30
2023-04-26T16:19:03.075Z,98.40
2023-04-26T16:21:37.849Z,98.70
2023-04-26T16:24:12.828Z,98.90
2023-04-26T16:26:47.602Z,99.10
2023-04-26T16:29:21.881Z,99.90
2023-04-26T16:31:56.085Z,99.90
2023-04-26T16:34:30.295Z,99.90
2023-04-26T16:37:04.631Z,99.90
2023-04-26T16:39:38.919Z,99.90
2023-04-26T16:42:13.050Z,99.90
2023-04-26T16:44:47.249Z,99.90
2023-04-26T16:47:21.361Z,99.90
2023-04-26T16:49:55.467Z,99.90
2023-04-26T16:52:29.613Z,99.90
2023-04-26T16:55:04.151Z,99.90
2023-04-26T16:57:38.323Z,99.90
2023-04-26T17:00:13.474Z,99.90
2023-04-26T17:02:50.156Z,99.90
2023-04-26T17:05:24.626Z,99.90
2023-04-26T17:07:59.357Z,99.90
2023-04-26T17:10:35.165Z,99.90
2023-04-26T17:13:10.062Z,99.90
2023-04-26T17:15:44.875Z,99.90
2023-04-26T17:18:19.013Z,99.90
2023-04-26T17:20:55.164Z,99.90
2023-04-26T17:23:29.275Z,99.90
2023-04-26T17:26:03.962Z,99.90
2023-04-26T17:28:40.056Z,99.90
2023-04-26T17:31:14.306Z,99.90
2023-04-26T17:33:48.452Z,99.90
2023-04-26T17:36:22.871Z,99.90
2023-04-26T17:38:57.026Z,99.90
2023-04-26T17:41:31.178Z,99.90
2023-04-26T17:44:05.431Z,99.90
2023-04-26T17:46:39.744Z,99.90
2023-04-26T17:49:14.017Z,99.90
2023-04-26T17:51:48.134Z,99.90
2023-04-26T17:54:22.243Z,99.90
2023-04-26T17:56:56.458Z,99.90
2023-04-26T17:59:30.709Z,99.90
2023-04-26T18:02:04.906Z,99.90
2023-04-26T18:04:39.462Z,99.90
2023-04-26T18:07:14.378Z,99.90
2023-04-26T18:09:48.816Z,99.90
2023-04-26T18:12:23.115Z,99.90
2023-04-26T18:14:57.630Z,99.90
2023-04-26T18:17:32.052Z,99.90
2023-04-26T18:20:06.490Z,99.90
2023-04-26T18:22:41.009Z,99.90
2023-04-26T18:25:15.138Z,99.90
2023-04-26T18:27:49.280Z,99.90
2023-04-26T18:30:23.471Z,99.90
2023-04-26T18:32:57.648Z,99.90
2023-04-26T18:35:32.149Z,99.90
2023-04-26T18:38:06.276Z,99.90
2023-04-26T18:40:45.333Z,99.90
2023-04-26T18:43:19.909Z,99.90
2023-04-26T18:45:54.282Z,99.90
2023-04-26T18:48:28.807Z,99.90
2023-04-26T18:51:02.887Z,99.90
2023-04-26T18:53:37.152Z,99.90
2023-04-26T18:56:11.461Z,99.90
2023-04-26T18:58:45.556Z,99.90
2023-04-26T19:01:22.631Z,99.90
2023-04-26T19:03:57.289Z,99.90
2023-04-26T19:06:32.637Z,99.90
2023-04-26T19:09:07.793Z,99.90
2023-04-26T19:11:41.928Z,99.90
2023-04-26T19:14:16.275Z,99.90
2023-04-26T19:16:50.376Z,99.90
2023-04-26T19:19:24.474Z,99.90
2023-04-26T19:21:58.570Z,99.90
2023-04-26T19:24:32.991Z,99.90
2023-04-26T19:27:07.140Z,99.90
2023-04-26T19:29:41.270Z,99.90
2023-04-26T19:32:15.750Z,99.90
2023-04-26T19:34:49.899Z,99.90
2023-04-26T19:37:23.989Z,99.90
2023-04-26T19:39:58.191Z,99.90
2023-04-26T19:42:32.489Z,99.90
2023-04-26T19:45:09.832Z,99.90
2023-04-26T19:47:46.117Z,99.90
2023-04-26T19:50:20.484Z,99.90
2023-04-26T19:52:56.504Z,99.90
2023-04-26T19:55:31.549Z,99.90
2023-04-26T19:58:07.312Z,99.90
2023-04-26T20:00:42.008Z,99.90
2023-04-26T20:03:16.919Z,99.90
2023-04-26T20:05:51.390Z,99.90
2023-04-26T20:08:25.713Z,99.90
2023-04-26T20:11:05.942Z,99.90
2023-04-26T20:13:40.263Z,99.90
2023-04-26T20:16:14.990Z,99.90
2023-04-26T20:18:49.598Z,99.90
2023-04-26T20:21:24.967Z,99.90
2023-04-26T20:24:01.081Z,99.90
2023-04-26T20:26:35.599Z,99.90
2023-04-26T20:29:10.181Z,99.90
2023-04-26T20:31:44.667Z,99.90
2023-04-26T20:34:19.247Z,99.90
2023-04-26T20:36:56.541Z,99.90
2023-04-26T20:39:34.933Z,99.90
2023-04-26T20:42:11.049Z,99.90
2023-04-26T20:44:45.768Z,99.90
2023-04-26T20:47:21.422Z,99.90
2023-04-26T20:49:56.126Z,99.90
2023-04-26T20:52:30.561Z,99.90
2023-04-26T20:55:05.290Z,99.90
2023-04-26T20:57:39.871Z,99.90
2023-04-26T21:00:14.741Z,99.90
2023-04-26T21:02:49.313Z,99.90
2023-04-26T21:05:25.312Z,99.90
2023-04-26T21:07:59.680Z,99.90
2023-04-26T21:10:33.942Z,99.90
2023-04-26T21:13:08.257Z,99.90
2023-04-26T21:15:45.996Z,99.90
2023-04-26T21:18:21.967Z,99.90
2023-04-26T21:20:56.242Z,99.90
2023-04-26T21:23:30.874Z,99.90
2023-04-26T21:26:05.149Z,99.90
2023-04-26T21:28:39.582Z,99.90
2023-04-26T21:31:13.969Z,99.90
2023-04-26T21:33:48.215Z,99.90
2023-04-26T21:36:22.469Z,99.90
2023-04-26T21:38:57.084Z,99.90
2023-04-26T21:41:31.178Z,99.90
2023-04-26T21:44:05.400Z,99.90
2023-04-26T21:46:39.547Z,99.90
2023-04-26T21:49:13.730Z,99.90
2023-04-26T21:51:47.856Z,99.90
2023-04-26T21:54:21.930Z,99.90
2023-04-26T21:56:56.017Z,99.90
2023-04-26T21:59:30.211Z,99.90
2023-04-26T22:02:04.960Z,99.90
2023-04-26T22:04:39.184Z,99.90
2023-04-26T22:07:13.422Z,99.90
2023-04-26T22:09:47.610Z,99.90
2023-04-26T22:12:21.781Z,99.90
2023-04-26T22:14:56.796Z,99.90
2023-04-26T22:17:31.153Z,99.90
2023-04-26T22:20:06.422Z,99.90
2023-04-26T22:22:40.732Z,99.90
2023-04-26T22:25:16.318Z,99.90
2023-04-26T22:27:50.659Z,99.90
2023-04-26T22:30:26.201Z,99.90
2023-04-26T22:33:00.969Z,99.90
2023-04-26T22:35:35.197Z,99.90
2023-04-26T22:38:09.315Z,99.90
2023-04-26T22:40:43.588Z,99.90
2023-04-26T22:43:17.881Z,99.90
2023-04-26T22:45:52.476Z,99.90
2023-04-26T22:48:26.746Z,99.90
2023-04-26T22:51:01.308Z,99.90
2023-04-26T22:53:35.457Z,99.90
2023-04-26T22:56:09.801Z,99.90
2023-04-26T22:58:43.932Z,99.90
2023-04-26T23:01:18.093Z,99.90
2023-04-26T23:03:52.339Z,99.90
2023-04-26T23:06:27.678Z,99.90
2023-04-26T23:09:01.735Z,99.90
2023-04-26T23:11:38.248Z,99.90
2023-04-26T23:14:12.887Z,99.90
2023-04-26T23:16:47.226Z,99.90
2023-04-26T23:19:21.425Z,98.40
2023-04-26T23:21:55.617Z,92.50
2023-04-26T23:24:29.689Z,87.40
2023-04-26T23:27:03.943Z,80.70
2023-04-26T23:29:38.156Z,79.90
2023-04-26T23:32:12.272Z,82.20
2023-04-26T23:34:46.641Z,85.30
2023-04-26T23:37:20.847Z,87.90
2023-04-26T23:39:54.969Z,89.20
2023-04-26T23:42:29.244Z,90.30
2023-04-26T23:45:03.407Z,91.20
2023-04-26T23:47:37.843Z,92.40
2023-04-26T23:50:12.349Z,93.10
2023-04-26T23:52:46.647Z,93.30
2023-04-26T23:55:20.827Z,93.90
2023-04-26T23:57:55.227Z,94.60
